sensor_id;sensor_type;location;lat;lon;timestamp;P1;durP1;ratioP1;P2;durP2;ratioP2
74223;SDS011;62585;49.706;18.216;2022-10-16T00:01:26;12.27;;;6.70;;
74223;SDS011;62585;49.706;18.216;2022-10-16T00:03:55;12.85;;;7.78;;
74223;SDS011;62585;49.706;18.216;2022-10-16T00:06:22;12.23;;;7.25;;
74223;SDS011;62585;49.706;18.216;2022-10-16T00:08:49;11.68;;;7.45;;
74223;SDS011;62585;49.706;18.216;2022-10-16T00:11:17;12.13;;;6.38;;
74223;SDS011;62585;49.706;18.216;2022-10-16T00:13:49;12.75;;;6.80;;
74223;SDS011;62585;49.706;18.216;2022-10-16T00:16:16;12.18;;;7.72;;
74223;SDS011;62585;49.706;18.216;2022-10-16T00:18:42;12.20;;;6.97;;
74223;SDS011;62585;49.706;18.216;2022-10-16T00:21:10;10.00;;;6.60;;
74223;SDS011;62585;49.706;18.216;2022-10-16T00:23:38;11.02;;;7.10;;
74223;SDS011;62585;49.706;18.216;2022-10-16T00:26:05;13.30;;;6.80;;
74223;SDS011;62585;49.706;18.216;2022-10-16T00:28:33;11.20;;;6.65;;
74223;SDS011;62585;49.706;18.216;2022-10-16T00:31:02;13.13;;;7.93;;
74223;SDS011;62585;49.706;18.216;2022-10-16T00:33:33;14.18;;;8.45;;
74223;SDS011;62585;49.706;18.216;2022-10-16T00:36:00;16.88;;;7.82;;
74223;SDS011;62585;49.706;18.216;2022-10-16T00:38:27;15.32;;;8.35;;
74223;SDS011;62585;49.706;18.216;2022-10-16T00:40:53;12.32;;;7.32;;
74223;SDS011;62585;49.706;18.216;2022-10-16T00:43:36;11.43;;;7.50;;
74223;SDS011;62585;49.706;18.216;2022-10-16T00:49:05;13.43;;;9.07;;
74223;SDS011;62585;49.706;18.216;2022-10-16T00:51:41;12.98;;;7.65;;
74223;SDS011;62585;49.706;18.216;2022-10-16T00:54:12;13.88;;;7.50;;
74223;SDS011;62585;49.706;18.216;2022-10-16T00:56:41;11.98;;;7.50;;
74223;SDS011;62585;49.706;18.216;2022-10-16T00:59:16;12.88;;;7.13;;
74223;SDS011;62585;49.706;18.216;2022-10-16T01:01:50;12.05;;;7.20;;
74223;SDS011;62585;49.706;18.216;2022-10-16T01:04:17;12.00;;;7.75;;
74223;SDS011;62585;49.706;18.216;2022-10-16T01:18:05;13.40;;;7.93;;
74223;SDS011;62585;49.706;18.216;2022-10-16T01:20:54;12.75;;;7.95;;
74223;SDS011;62585;49.706;18.216;2022-10-16T01:23:44;11.90;;;7.50;;
74223;SDS011;62585;49.706;18.216;2022-10-16T01:29:18;13.27;;;8.30;;
74223;SDS011;62585;49.706;18.216;2022-10-16T01:31:53;16.38;;;8.38;;
74223;SDS011;62585;49.706;18.216;2022-10-16T01:37:15;15.88;;;8.45;;
74223;SDS011;62585;49.706;18.216;2022-10-16T01:39:45;16.48;;;9.38;;
74223;SDS011;62585;49.706;18.216;2022-10-16T01:42:15;15.02;;;9.15;;
74223;SDS011;62585;49.706;18.216;2022-10-16T01:44:45;15.65;;;8.95;;
74223;SDS011;62585;49.706;18.216;2022-10-16T01:47:13;14.20;;;8.85;;
74223;SDS011;62585;49.706;18.216;2022-10-16T01:49:40;12.90;;;8.25;;
74223;SDS011;62585;49.706;18.216;2022-10-16T01:52:13;15.13;;;8.45;;
74223;SDS011;62585;49.706;18.216;2022-10-16T01:54:43;14.40;;;8.23;;
74223;SDS011;62585;49.706;18.216;2022-10-16T01:57:11;13.90;;;8.02;;
74223;SDS011;62585;49.706;18.216;2022-10-16T01:59:42;17.00;;;9.40;;
74223;SDS011;62585;49.706;18.216;2022-10-16T02:02:10;15.60;;;8.95;;
74223;SDS011;62585;49.706;18.216;2022-10-16T02:04:48;14.02;;;8.40;;
74223;SDS011;62585;49.706;18.216;2022-10-16T02:07:18;13.88;;;8.60;;
74223;SDS011;62585;49.706;18.216;2022-10-16T02:09:44;18.60;;;8.10;;
74223;SDS011;62585;49.706;18.216;2022-10-16T02:12:15;13.55;;;8.52;;
74223;SDS011;62585;49.706;18.216;2022-10-16T02:14:46;16.45;;;8.55;;
74223;SDS011;62585;49.706;18.216;2022-10-16T02:17:14;12.98;;;8.40;;
74223;SDS011;62585;49.706;18.216;2022-10-16T02:19:41;15.98;;;8.38;;
74223;SDS011;62585;49.706;18.216;2022-10-16T02:22:09;12.95;;;8.48;;
74223;SDS011;62585;49.706;18.216;2022-10-16T02:30:06;14.18;;;8.23;;
74223;SDS011;62585;49.706;18.216;2022-10-16T02:35:05;16.00;;;7.45;;
74223;SDS011;62585;49.706;18.216;2022-10-16T02:37:32;13.98;;;7.80;;
74223;SDS011;62585;49.706;18.216;2022-10-16T02:39:59;14.25;;;8.05;;
74223;SDS011;62585;49.706;18.216;2022-10-16T02:42:29;14.75;;;8.65;;
74223;SDS011;62585;49.706;18.216;2022-10-16T02:44:59;15.43;;;8.52;;
74223;SDS011;62585;49.706;18.216;2022-10-16T02:47:25;13.75;;;7.47;;
74223;SDS011;62585;49.706;18.216;2022-10-16T02:49:52;17.40;;;9.70;;
74223;SDS011;62585;49.706;18.216;2022-10-16T02:54:44;14.57;;;8.73;;
74223;SDS011;62585;49.706;18.216;2022-10-16T02:57:10;14.40;;;8.75;;
74223;SDS011;62585;49.706;18.216;2022-10-16T02:59:37;15.75;;;8.07;;
74223;SDS011;62585;49.706;18.216;2022-10-16T03:02:03;12.48;;;8.10;;
74223;SDS011;62585;49.706;18.216;2022-10-16T03:04:29;15.60;;;7.88;;
74223;SDS011;62585;49.706;18.216;2022-10-16T03:06:55;20.27;;;10.50;;
74223;SDS011;62585;49.706;18.216;2022-10-16T03:09:21;15.00;;;8.27;;
74223;SDS011;62585;49.706;18.216;2022-10-16T03:11:47;12.38;;;8.07;;
74223;SDS011;62585;49.706;18.216;2022-10-16T03:14:13;13.38;;;8.30;;
74223;SDS011;62585;49.706;18.216;2022-10-16T03:16:39;14.40;;;7.95;;
74223;SDS011;62585;49.706;18.216;2022-10-16T03:19:05;14.35;;;8.15;;
74223;SDS011;62585;49.706;18.216;2022-10-16T03:21:31;13.38;;;8.48;;
74223;SDS011;62585;49.706;18.216;2022-10-16T03:23:57;16.38;;;9.32;;
74223;SDS011;62585;49.706;18.216;2022-10-16T03:26:23;17.98;;;9.80;;
74223;SDS011;62585;49.706;18.216;2022-10-16T03:28:49;14.30;;;8.73;;
74223;SDS011;62585;49.706;18.216;2022-10-16T03:31:15;20.08;;;9.43;;
74223;SDS011;62585;49.706;18.216;2022-10-16T03:33:41;15.13;;;8.20;;
74223;SDS011;62585;49.706;18.216;2022-10-16T03:36:07;16.05;;;9.25;;
74223;SDS011;62585;49.706;18.216;2022-10-16T03:38:33;19.77;;;9.18;;
74223;SDS011;62585;49.706;18.216;2022-10-16T03:40:59;13.93;;;7.85;;
74223;SDS011;62585;49.706;18.216;2022-10-16T03:43:26;14.02;;;8.50;;
74223;SDS011;62585;49.706;18.216;2022-10-16T03:45:52;14.73;;;8.35;;
74223;SDS011;62585;49.706;18.216;2022-10-16T03:48:18;15.32;;;9.20;;
74223;SDS011;62585;49.706;18.216;2022-10-16T03:50:45;16.42;;;9.27;;
74223;SDS011;62585;49.706;18.216;2022-10-16T03:53:13;15.82;;;9.00;;
74223;SDS011;62585;49.706;18.216;2022-10-16T03:55:43;13.10;;;7.35;;
74223;SDS011;62585;49.706;18.216;2022-10-16T03:58:09;16.17;;;8.80;;
74223;SDS011;62585;49.706;18.216;2022-10-16T04:00:39;16.58;;;9.05;;
74223;SDS011;62585;49.706;18.216;2022-10-16T04:03:08;17.48;;;9.43;;
74223;SDS011;62585;49.706;18.216;2022-10-16T04:05:34;15.75;;;9.32;;
74223;SDS011;62585;49.706;18.216;2022-10-16T04:08:00;17.88;;;9.93;;
74223;SDS011;62585;49.706;18.216;2022-10-16T04:10:26;15.18;;;9.70;;
74223;SDS011;62585;49.706;18.216;2022-10-16T04:12:52;13.80;;;8.30;;
74223;SDS011;62585;49.706;18.216;2022-10-16T04:15:21;15.30;;;9.38;;
74223;SDS011;62585;49.706;18.216;2022-10-16T04:17:48;17.50;;;8.57;;
74223;SDS011;62585;49.706;18.216;2022-10-16T04:20:17;15.98;;;9.20;;
74223;SDS011;62585;49.706;18.216;2022-10-16T04:22:44;17.67;;;9.15;;
74223;SDS011;62585;49.706;18.216;2022-10-16T04:25:10;14.07;;;8.38;;
74223;SDS011;62585;49.706;18.216;2022-10-16T04:27:37;13.57;;;8.55;;
74223;SDS011;62585;49.706;18.216;2022-10-16T04:30:03;13.57;;;8.32;;
74223;SDS011;62585;49.706;18.216;2022-10-16T04:32:30;15.35;;;7.85;;
74223;SDS011;62585;49.706;18.216;2022-10-16T04:34:56;14.90;;;8.85;;
74223;SDS011;62585;49.706;18.216;2022-10-16T04:37:23;16.20;;;8.80;;
74223;SDS011;62585;49.706;18.216;2022-10-16T04:39:53;16.63;;;8.57;;
74223;SDS011;62585;49.706;18.216;2022-10-16T04:42:19;16.23;;;8.90;;
74223;SDS011;62585;49.706;18.216;2022-10-16T04:44:46;13.50;;;8.88;;
74223;SDS011;62585;49.706;18.216;2022-10-16T04:47:12;13.95;;;7.65;;
74223;SDS011;62585;49.706;18.216;2022-10-16T04:49:38;13.18;;;8.23;;
74223;SDS011;62585;49.706;18.216;2022-10-16T04:52:04;12.77;;;7.95;;
74223;SDS011;62585;49.706;18.216;2022-10-16T04:54:30;15.65;;;9.35;;
74223;SDS011;62585;49.706;18.216;2022-10-16T04:56:56;16.60;;;9.10;;
74223;SDS011;62585;49.706;18.216;2022-10-16T04:59:23;14.52;;;9.18;;
74223;SDS011;62585;49.706;18.216;2022-10-16T05:01:49;15.38;;;7.88;;
74223;SDS011;62585;49.706;18.216;2022-10-16T05:04:15;12.85;;;8.40;;
74223;SDS011;62585;49.706;18.216;2022-10-16T05:06:41;15.50;;;8.88;;
74223;SDS011;62585;49.706;18.216;2022-10-16T05:09:07;15.10;;;7.68;;
74223;SDS011;62585;49.706;18.216;2022-10-16T05:11:34;11.63;;;7.97;;
74223;SDS011;62585;49.706;18.216;2022-10-16T05:14:00;12.23;;;8.27;;
74223;SDS011;62585;49.706;18.216;2022-10-16T05:16:26;13.55;;;7.85;;
74223;SDS011;62585;49.706;18.216;2022-10-16T05:18:53;13.07;;;8.48;;
74223;SDS011;62585;49.706;18.216;2022-10-16T05:21:19;13.55;;;7.80;;
74223;SDS011;62585;49.706;18.216;2022-10-16T05:23:45;11.60;;;7.80;;
74223;SDS011;62585;49.706;18.216;2022-10-16T05:26:12;13.30;;;7.15;;
74223;SDS011;62585;49.706;18.216;2022-10-16T05:28:38;12.55;;;8.00;;
74223;SDS011;62585;49.706;18.216;2022-10-16T05:31:04;19.38;;;10.75;;
74223;SDS011;62585;49.706;18.216;2022-10-16T05:33:32;20.25;;;12.40;;
74223;SDS011;62585;49.706;18.216;2022-10-16T05:36:04;15.43;;;9.73;;
74223;SDS011;62585;49.706;18.216;2022-10-16T05:38:33;16.92;;;10.82;;
74223;SDS011;62585;49.706;18.216;2022-10-16T05:40:59;17.17;;;10.70;;
74223;SDS011;62585;49.706;18.216;2022-10-16T05:43:27;18.50;;;10.20;;
74223;SDS011;62585;49.706;18.216;2022-10-16T05:45:57;15.98;;;10.50;;
74223;SDS011;62585;49.706;18.216;2022-10-16T05:48:24;14.30;;;8.50;;
74223;SDS011;62585;49.706;18.216;2022-10-16T05:50:58;16.83;;;9.10;;
74223;SDS011;62585;49.706;18.216;2022-10-16T05:53:30;15.82;;;8.30;;
74223;SDS011;62585;49.706;18.216;2022-10-16T05:55:59;14.40;;;8.98;;
74223;SDS011;62585;49.706;18.216;2022-10-16T05:58:27;14.98;;;8.85;;
74223;SDS011;62585;49.706;18.216;2022-10-16T06:00:55;14.07;;;8.73;;
74223;SDS011;62585;49.706;18.216;2022-10-16T06:03:26;13.85;;;8.75;;
74223;SDS011;62585;49.706;18.216;2022-10-16T06:05:53;14.30;;;8.63;;
74223;SDS011;62585;49.706;18.216;2022-10-16T06:08:20;13.75;;;7.72;;
74223;SDS011;62585;49.706;18.216;2022-10-16T06:10:47;14.50;;;8.27;;
74223;SDS011;62585;49.706;18.216;2022-10-16T06:13:13;15.63;;;9.02;;
74223;SDS011;62585;49.706;18.216;2022-10-16T06:15:41;15.20;;;8.70;;
74223;SDS011;62585;49.706;18.216;2022-10-16T06:18:08;13.25;;;9.13;;
74223;SDS011;62585;49.706;18.216;2022-10-16T06:20:34;14.55;;;9.02;;
74223;SDS011;62585;49.706;18.216;2022-10-16T06:23:01;13.95;;;9.18;;
74223;SDS011;62585;49.706;18.216;2022-10-16T06:25:27;14.75;;;8.32;;
74223;SDS011;62585;49.706;18.216;2022-10-16T06:27:53;15.40;;;8.55;;
74223;SDS011;62585;49.706;18.216;2022-10-16T06:30:19;14.50;;;9.38;;
74223;SDS011;62585;49.706;18.216;2022-10-16T06:32:45;13.55;;;8.52;;
74223;SDS011;62585;49.706;18.216;2022-10-16T06:35:11;16.25;;;8.85;;
74223;SDS011;62585;49.706;18.216;2022-10-16T06:37:37;13.02;;;8.63;;
74223;SDS011;62585;49.706;18.216;2022-10-16T06:40:03;15.85;;;8.02;;
74223;SDS011;62585;49.706;18.216;2022-10-16T06:42:29;14.52;;;8.60;;
74223;SDS011;62585;49.706;18.216;2022-10-16T06:44:56;18.23;;;9.73;;
74223;SDS011;62585;49.706;18.216;2022-10-16T06:47:26;16.08;;;9.75;;
74223;SDS011;62585;49.706;18.216;2022-10-16T06:49:52;13.68;;;8.18;;
74223;SDS011;62585;49.706;18.216;2022-10-16T06:52:18;16.10;;;9.98;;
74223;SDS011;62585;49.706;18.216;2022-10-16T06:54:44;17.13;;;8.98;;
74223;SDS011;62585;49.706;18.216;2022-10-16T06:57:10;14.80;;;8.98;;
74223;SDS011;62585;49.706;18.216;2022-10-16T06:59:36;16.60;;;9.88;;
74223;SDS011;62585;49.706;18.216;2022-10-16T07:02:02;14.23;;;9.55;;
74223;SDS011;62585;49.706;18.216;2022-10-16T07:04:28;16.95;;;11.32;;
74223;SDS011;62585;49.706;18.216;2022-10-16T07:06:54;15.80;;;10.80;;
74223;SDS011;62585;49.706;18.216;2022-10-16T07:09:20;15.65;;;9.13;;
74223;SDS011;62585;49.706;18.216;2022-10-16T07:11:48;16.25;;;9.82;;
74223;SDS011;62585;49.706;18.216;2022-10-16T07:14:18;13.68;;;8.60;;
74223;SDS011;62585;49.706;18.216;2022-10-16T07:16:46;14.98;;;8.18;;
74223;SDS011;62585;49.706;18.216;2022-10-16T07:19:13;16.60;;;9.25;;
74223;SDS011;62585;49.706;18.216;2022-10-16T07:21:41;13.63;;;8.40;;
74223;SDS011;62585;49.706;18.216;2022-10-16T07:24:10;15.18;;;8.75;;
74223;SDS011;62585;49.706;18.216;2022-10-16T07:26:38;12.27;;;8.30;;
74223;SDS011;62585;49.706;18.216;2022-10-16T07:31:45;13.27;;;8.30;;
74223;SDS011;62585;49.706;18.216;2022-10-16T07:34:12;12.70;;;8.27;;
74223;SDS011;62585;49.706;18.216;2022-10-16T07:36:39;13.80;;;8.40;;
74223;SDS011;62585;49.706;18.216;2022-10-16T07:39:05;16.17;;;9.48;;
74223;SDS011;62585;49.706;18.216;2022-10-16T07:41:32;15.52;;;9.25;;
74223;SDS011;62585;49.706;18.216;2022-10-16T07:44:02;16.35;;;9.90;;
74223;SDS011;62585;49.706;18.216;2022-10-16T07:48:54;17.15;;;9.48;;
74223;SDS011;62585;49.706;18.216;2022-10-16T07:51:23;18.02;;;11.60;;
74223;SDS011;62585;49.706;18.216;2022-10-16T07:53:50;15.32;;;10.07;;
74223;SDS011;62585;49.706;18.216;2022-10-16T07:56:17;18.77;;;11.20;;
74223;SDS011;62585;49.706;18.216;2022-10-16T07:58:43;20.98;;;11.80;;
74223;SDS011;62585;49.706;18.216;2022-10-16T08:01:11;21.50;;;12.88;;
74223;SDS011;62585;49.706;18.216;2022-10-16T08:03:42;20.65;;;12.70;;
74223;SDS011;62585;49.706;18.216;2022-10-16T08:06:09;23.48;;;12.25;;
74223;SDS011;62585;49.706;18.216;2022-10-16T08:08:35;19.13;;;11.80;;
74223;SDS011;62585;49.706;18.216;2022-10-16T08:11:02;19.58;;;11.57;;
74223;SDS011;62585;49.706;18.216;2022-10-16T08:13:29;15.93;;;10.68;;
74223;SDS011;62585;49.706;18.216;2022-10-16T08:15:56;17.58;;;11.35;;
74223;SDS011;62585;49.706;18.216;2022-10-16T08:18:22;19.25;;;10.55;;
74223;SDS011;62585;49.706;18.216;2022-10-16T08:20:54;17.85;;;11.07;;
74223;SDS011;62585;49.706;18.216;2022-10-16T08:23:21;16.58;;;11.25;;
74223;SDS011;62585;49.706;18.216;2022-10-16T08:25:47;16.55;;;9.95;;
74223;SDS011;62585;49.706;18.216;2022-10-16T08:28:13;15.73;;;9.57;;
74223;SDS011;62585;49.706;18.216;2022-10-16T08:30:39;13.27;;;8.93;;
74223;SDS011;62585;49.706;18.216;2022-10-16T08:33:05;15.32;;;8.57;;
74223;SDS011;62585;49.706;18.216;2022-10-16T08:35:32;15.63;;;9.10;;
74223;SDS011;62585;49.706;18.216;2022-10-16T08:37:58;13.50;;;7.97;;
74223;SDS011;62585;49.706;18.216;2022-10-16T08:40:25;14.43;;;8.35;;
74223;SDS011;62585;49.706;18.216;2022-10-16T08:48:54;12.00;;;7.72;;
74223;SDS011;62585;49.706;18.216;2022-10-16T08:51:23;15.02;;;7.70;;
74223;SDS011;62585;49.706;18.216;2022-10-16T08:56:39;12.40;;;7.85;;
74223;SDS011;62585;49.706;18.216;2022-10-16T08:59:06;12.00;;;7.53;;
74223;SDS011;62585;49.706;18.216;2022-10-16T09:01:41;11.75;;;6.97;;
74223;SDS011;62585;49.706;18.216;2022-10-16T09:09:52;7.47;;;5.75;;
74223;SDS011;62585;49.706;18.216;2022-10-16T09:15:38;9.13;;;5.70;;
74223;SDS011;62585;49.706;18.216;2022-10-16T09:21:05;7.75;;;5.57;;
74223;SDS011;62585;49.706;18.216;2022-10-16T09:23:38;10.50;;;5.20;;
74223;SDS011;62585;49.706;18.216;2022-10-16T09:26:05;7.80;;;5.55;;
74223;SDS011;62585;49.706;18.216;2022-10-16T09:28:35;9.45;;;5.20;;
74223;SDS011;62585;49.706;18.216;2022-10-16T09:31:01;9.95;;;5.78;;
74223;SDS011;62585;49.706;18.216;2022-10-16T09:33:28;7.90;;;5.70;;
74223;SDS011;62585;49.706;18.216;2022-10-16T09:36:03;7.88;;;4.97;;
74223;SDS011;62585;49.706;18.216;2022-10-16T09:38:32;7.90;;;5.22;;
74223;SDS011;62585;49.706;18.216;2022-10-16T09:41:00;10.70;;;5.80;;
74223;SDS011;62585;49.706;18.216;2022-10-16T09:43:38;10.90;;;5.63;;
74223;SDS011;62585;49.706;18.216;2022-10-16T09:46:22;8.25;;;5.75;;
74223;SDS011;62585;49.706;18.216;2022-10-16T09:48:51;8.45;;;5.45;;
74223;SDS011;62585;49.706;18.216;2022-10-16T09:51:28;10.07;;;6.10;;
74223;SDS011;62585;49.706;18.216;2022-10-16T09:54:00;10.82;;;6.03;;
74223;SDS011;62585;49.706;18.216;2022-10-16T09:56:32;7.43;;;4.95;;
74223;SDS011;62585;49.706;18.216;2022-10-16T09:59:02;9.05;;;5.18;;
74223;SDS011;62585;49.706;18.216;2022-10-16T10:01:56;10.80;;;5.60;;
74223;SDS011;62585;49.706;18.216;2022-10-16T10:04:37;8.40;;;5.07;;
74223;SDS011;62585;49.706;18.216;2022-10-16T10:07:06;9.45;;;5.60;;
74223;SDS011;62585;49.706;18.216;2022-10-16T10:09:44;8.55;;;5.45;;
74223;SDS011;62585;49.706;18.216;2022-10-16T10:14:52;9.02;;;5.47;;
74223;SDS011;62585;49.706;18.216;2022-10-16T10:17:22;9.32;;;5.80;;
74223;SDS011;62585;49.706;18.216;2022-10-16T10:19:53;9.57;;;5.80;;
74223;SDS011;62585;49.706;18.216;2022-10-16T10:25:15;7.18;;;5.03;;
74223;SDS011;62585;49.706;18.216;2022-10-16T10:39:03;9.57;;;5.63;;
74223;SDS011;62585;49.706;18.216;2022-10-16T10:42:21;8.40;;;5.75;;
74223;SDS011;62585;49.706;18.216;2022-10-16T10:47:29;11.85;;;5.75;;
74223;SDS011;62585;49.706;18.216;2022-10-16T10:50:34;8.05;;;4.45;;
74223;SDS011;62585;49.706;18.216;2022-10-16T10:53:50;7.35;;;4.95;;
74223;SDS011;62585;49.706;18.216;2022-10-16T11:01:41;8.63;;;5.35;;
74223;SDS011;62585;49.706;18.216;2022-10-16T11:07:15;11.43;;;5.88;;
74223;SDS011;62585;49.706;18.216;2022-10-16T11:09:50;8.95;;;5.40;;
74223;SDS011;62585;49.706;18.216;2022-10-16T11:12:33;9.35;;;5.40;;
74223;SDS011;62585;49.706;18.216;2022-10-16T11:15:20;8.25;;;5.60;;
74223;SDS011;62585;49.706;18.216;2022-10-16T11:20:21;9.82;;;6.18;;
74223;SDS011;62585;49.706;18.216;2022-10-16T11:25:32;11.70;;;6.82;;
74223;SDS011;62585;49.706;18.216;2022-10-16T11:28:03;11.55;;;6.78;;
74223;SDS011;62585;49.706;18.216;2022-10-16T11:30:47;8.90;;;6.05;;
74223;SDS011;62585;49.706;18.216;2022-10-16T11:33:27;10.73;;;6.68;;
74223;SDS011;62585;49.706;18.216;2022-10-16T11:38:35;10.02;;;6.47;;
74223;SDS011;62585;49.706;18.216;2022-10-16T11:43:38;8.98;;;5.18;;
74223;SDS011;62585;49.706;18.216;2022-10-16T11:46:12;9.15;;;5.78;;
74223;SDS011;62585;49.706;18.216;2022-10-16T11:48:49;10.27;;;6.50;;
74223;SDS011;62585;49.706;18.216;2022-10-16T11:51:38;10.43;;;5.47;;
74223;SDS011;62585;49.706;18.216;2022-10-16T11:56:39;10.00;;;6.18;;
74223;SDS011;62585;49.706;18.216;2022-10-16T12:05:01;11.23;;;6.22;;
74223;SDS011;62585;49.706;18.216;2022-10-16T12:07:38;8.32;;;5.25;;
74223;SDS011;62585;49.706;18.216;2022-10-16T12:10:22;10.52;;;6.95;;
74223;SDS011;62585;49.706;18.216;2022-10-16T12:12:51;13.13;;;6.80;;
74223;SDS011;62585;49.706;18.216;2022-10-16T12:15:28;9.88;;;6.07;;
74223;SDS011;62585;49.706;18.216;2022-10-16T12:18:00;9.95;;;5.93;;
74223;SDS011;62585;49.706;18.216;2022-10-16T12:20:31;11.82;;;7.03;;
74223;SDS011;62585;49.706;18.216;2022-10-16T12:23:01;9.88;;;6.50;;
74223;SDS011;62585;49.706;18.216;2022-10-16T12:25:33;10.38;;;6.60;;
74223;SDS011;62585;49.706;18.216;2022-10-16T12:28:02;12.88;;;6.50;;
74223;SDS011;62585;49.706;18.216;2022-10-16T12:30:32;13.52;;;7.18;;
74223;SDS011;62585;49.706;18.216;2022-10-16T12:33:05;14.40;;;7.95;;
74223;SDS011;62585;49.706;18.216;2022-10-16T12:35:45;11.02;;;6.63;;
74223;SDS011;62585;49.706;18.216;2022-10-16T12:38:16;9.93;;;6.75;;
74223;SDS011;62585;49.706;18.216;2022-10-16T12:40:56;12.75;;;7.07;;
74223;SDS011;62585;49.706;18.216;2022-10-16T12:43:34;11.32;;;6.88;;
74223;SDS011;62585;49.706;18.216;2022-10-16T12:46:06;9.35;;;5.72;;
74223;SDS011;62585;49.706;18.216;2022-10-16T12:48:47;11.20;;;7.05;;
74223;SDS011;62585;49.706;18.216;2022-10-16T12:51:23;8.40;;;6.10;;
74223;SDS011;62585;49.706;18.216;2022-10-16T12:56:55;11.23;;;6.38;;
74223;SDS011;62585;49.706;18.216;2022-10-16T13:08:18;11.13;;;6.47;;
74223;SDS011;62585;49.706;18.216;2022-10-16T13:11:14;8.45;;;5.20;;
74223;SDS011;62585;49.706;18.216;2022-10-16T13:17:06;9.57;;;6.75;;
74223;SDS011;62585;49.706;18.216;2022-10-16T13:19:56;11.45;;;6.70;;
74223;SDS011;62585;49.706;18.216;2022-10-16T13:28:08;8.98;;;5.78;;
74223;SDS011;62585;49.706;18.216;2022-10-16T13:30:41;10.40;;;6.55;;
74223;SDS011;62585;49.706;18.216;2022-10-16T13:35:58;11.32;;;5.82;;
74223;SDS011;62585;49.706;18.216;2022-10-16T13:38:28;8.35;;;5.70;;
74223;SDS011;62585;49.706;18.216;2022-10-16T13:43:36;9.23;;;4.97;;
74223;SDS011;62585;49.706;18.216;2022-10-16T13:46:06;8.90;;;5.95;;
74223;SDS011;62585;49.706;18.216;2022-10-16T13:48:59;9.88;;;5.82;;
74223;SDS011;62585;49.706;18.216;2022-10-16T13:51:31;12.10;;;7.28;;
74223;SDS011;62585;49.706;18.216;2022-10-16T13:53:59;7.65;;;5.10;;
74223;SDS011;62585;49.706;18.216;2022-10-16T13:56:28;8.68;;;5.63;;
74223;SDS011;62585;49.706;18.216;2022-10-16T14:01:32;11.63;;;6.43;;
74223;SDS011;62585;49.706;18.216;2022-10-16T14:04:01;9.90;;;5.55;;
74223;SDS011;62585;49.706;18.216;2022-10-16T14:06:30;9.05;;;6.47;;
74223;SDS011;62585;49.706;18.216;2022-10-16T14:09:02;10.48;;;6.68;;
74223;SDS011;62585;49.706;18.216;2022-10-16T14:11:31;9.18;;;5.75;;
74223;SDS011;62585;49.706;18.216;2022-10-16T14:13:58;9.20;;;5.80;;
74223;SDS011;62585;49.706;18.216;2022-10-16T14:16:29;10.95;;;7.25;;
74223;SDS011;62585;49.706;18.216;2022-10-16T14:18:58;11.85;;;7.28;;
74223;SDS011;62585;49.706;18.216;2022-10-16T14:21:26;14.30;;;7.80;;
74223;SDS011;62585;49.706;18.216;2022-10-16T14:23:53;14.15;;;8.27;;
74223;SDS011;62585;49.706;18.216;2022-10-16T14:26:22;11.73;;;7.13;;
74223;SDS011;62585;49.706;18.216;2022-10-16T14:29:01;7.88;;;5.53;;
74223;SDS011;62585;49.706;18.216;2022-10-16T14:31:36;7.93;;;5.70;;
74223;SDS011;62585;49.706;18.216;2022-10-16T14:34:02;11.27;;;6.90;;
74223;SDS011;62585;49.706;18.216;2022-10-16T14:38:57;9.55;;;5.55;;
74223;SDS011;62585;49.706;18.216;2022-10-16T14:43:57;8.88;;;6.40;;
74223;SDS011;62585;49.706;18.216;2022-10-16T14:46:32;12.50;;;6.43;;
74223;SDS011;62585;49.706;18.216;2022-10-16T14:51:36;11.02;;;6.90;;
74223;SDS011;62585;49.706;18.216;2022-10-16T14:54:03;6.78;;;4.70;;
74223;SDS011;62585;49.706;18.216;2022-10-16T14:56:51;9.18;;;6.00;;
74223;SDS011;62585;49.706;18.216;2022-10-16T14:59:25;11.98;;;7.40;;
74223;SDS011;62585;49.706;18.216;2022-10-16T15:02:46;10.45;;;7.05;;
74223;SDS011;62585;49.706;18.216;2022-10-16T15:04:55;10.63;;;7.47;;
74223;SDS011;62585;49.706;18.216;2022-10-16T15:07:21;12.13;;;6.82;;
74223;SDS011;62585;49.706;18.216;2022-10-16T15:09:47;12.18;;;6.18;;
74223;SDS011;62585;49.706;18.216;2022-10-16T15:12:14;11.25;;;6.95;;
74223;SDS011;62585;49.706;18.216;2022-10-16T15:14:40;11.25;;;6.68;;
74223;SDS011;62585;49.706;18.216;2022-10-16T15:17:07;10.50;;;7.25;;
74223;SDS011;62585;49.706;18.216;2022-10-16T15:19:35;10.35;;;7.50;;
74223;SDS011;62585;49.706;18.216;2022-10-16T15:22:01;9.50;;;6.32;;
74223;SDS011;62585;49.706;18.216;2022-10-16T15:24:27;10.90;;;6.32;;
74223;SDS011;62585;49.706;18.216;2022-10-16T15:26:53;9.70;;;5.95;;
74223;SDS011;62585;49.706;18.216;2022-10-16T15:29:19;14.63;;;7.20;;
74223;SDS011;62585;49.706;18.216;2022-10-16T15:31:45;11.57;;;6.38;;
74223;SDS011;62585;49.706;18.216;2022-10-16T15:34:13;12.07;;;8.23;;
74223;SDS011;62585;49.706;18.216;2022-10-16T15:36:39;12.95;;;8.00;;
74223;SDS011;62585;49.706;18.216;2022-10-16T15:39:10;11.63;;;7.22;;
74223;SDS011;62585;49.706;18.216;2022-10-16T15:41:39;10.65;;;7.55;;
74223;SDS011;62585;49.706;18.216;2022-10-16T15:44:05;10.95;;;6.43;;
74223;SDS011;62585;49.706;18.216;2022-10-16T15:46:31;11.90;;;7.82;;
74223;SDS011;62585;49.706;18.216;2022-10-16T15:48:59;12.18;;;7.45;;
74223;SDS011;62585;49.706;18.216;2022-10-16T15:51:26;13.95;;;8.18;;
74223;SDS011;62585;49.706;18.216;2022-10-16T15:53:58;15.98;;;9.60;;
74223;SDS011;62585;49.706;18.216;2022-10-16T15:56:27;17.15;;;9.63;;
74223;SDS011;62585;49.706;18.216;2022-10-16T15:58:54;14.80;;;9.13;;
74223;SDS011;62585;49.706;18.216;2022-10-16T16:01:20;20.20;;;10.45;;
74223;SDS011;62585;49.706;18.216;2022-10-16T16:03:47;23.30;;;12.45;;
74223;SDS011;62585;49.706;18.216;2022-10-16T16:06:13;17.58;;;9.88;;
74223;SDS011;62585;49.706;18.216;2022-10-16T16:08:40;16.00;;;8.77;;
74223;SDS011;62585;49.706;18.216;2022-10-16T16:11:07;13.38;;;8.38;;
74223;SDS011;62585;49.706;18.216;2022-10-16T16:13:37;12.50;;;7.28;;
74223;SDS011;62585;49.706;18.216;2022-10-16T16:16:10;14.25;;;9.48;;
74223;SDS011;62585;49.706;18.216;2022-10-16T16:18:41;15.50;;;9.23;;
74223;SDS011;62585;49.706;18.216;2022-10-16T16:21:08;10.15;;;6.60;;
74223;SDS011;62585;49.706;18.216;2022-10-16T16:23:35;12.10;;;8.13;;
74223;SDS011;62585;49.706;18.216;2022-10-16T16:26:02;13.43;;;7.43;;
74223;SDS011;62585;49.706;18.216;2022-10-16T16:28:36;13.63;;;8.50;;
74223;SDS011;62585;49.706;18.216;2022-10-16T16:31:03;11.95;;;7.95;;
74223;SDS011;62585;49.706;18.216;2022-10-16T16:33:29;13.68;;;8.75;;
74223;SDS011;62585;49.706;18.216;2022-10-16T16:35:57;14.05;;;7.90;;
74223;SDS011;62585;49.706;18.216;2022-10-16T16:38:24;11.50;;;8.57;;
74223;SDS011;62585;49.706;18.216;2022-10-16T16:40:50;15.05;;;9.52;;
74223;SDS011;62585;49.706;18.216;2022-10-16T16:43:17;11.82;;;7.47;;
74223;SDS011;62585;49.706;18.216;2022-10-16T16:45:44;12.30;;;7.90;;
74223;SDS011;62585;49.706;18.216;2022-10-16T16:48:10;11.60;;;7.70;;
74223;SDS011;62585;49.706;18.216;2022-10-16T16:50:36;13.65;;;8.20;;
74223;SDS011;62585;49.706;18.216;2022-10-16T16:53:03;11.18;;;7.85;;
74223;SDS011;62585;49.706;18.216;2022-10-16T16:55:29;14.68;;;8.60;;
74223;SDS011;62585;49.706;18.216;2022-10-16T16:57:55;13.15;;;7.75;;